Terminal Aerodrome Forecast
Issued by NWS Springfield, MO

Home | Current Version | Previous Version | Text Only | Print | Product List | Glossary On
Versions: 1 2 3 4 5 6 7 8 9 10 11 12 13 14 15 16
253
FTUS43 KSGF 131120
TAFSGF
TAF
KSGF 131120Z 1312/1412 18014KT P6SM SKC WS020/25040KT
     FM131500 23018G25KT P6SM SKC WS020/25045KT
     FM131800 27017G24KT P6SM SKC
     FM132300 31012KT P6SM SKC
     FM140900 34006KT P6SM FEW140=

USA.gov is the U.S. government's official web portal to all federal, state and local government web resources and services.